الصفحة الرئيسية
METAR-TAF:

METAR-TAF

مطار :

بوريرام, تايلاند

دائرة عرض: 15-13-46N, خط طول: 103-15-04E, ارتفاع: 180 متر

مراقبة الطقس الحالي

تاريخ ووقت الإصدار 55 دقيقة قبل الساعة 02:00UTC
ريح 3 عقدة من الشمال
درجة الحرارة 23°درجة مئوية
الرطوبة 100%
ضغط 1012 hPa
الرؤية: 7000 متر
غيوم قليلة على ارتفاع 1500 قدم, مزنة ركامية.
غيوم مفككة على ارتفاع 2500 قدم
ملبد بالغيوم على ارتفاع 6000 قدم
عاصفة رعدية, مطر خفيف

METAR: VTUO 190200Z 01003KT 7000 -TSRA FEW015CB BKN025 OVC060 23/23 Q1012 RERA NOSIG

زمن: 09:55 (02:55 UTC)

توقعات

تاريخ ووقت الإصدار 3ساعات و 55 دقيقة قبل الساعة 23:00UTC
التوقعات صالحة من19 الساعة 00 UTC إلى 19 الساعة 24 UTC
ريح 5 عقدة من الجنوب الغربي
الرؤية: 9000 متر
غيوم متفرقة على ارتفاع 3000 قدم
مؤقت
من 19 الساعة 00 UTC إلى 19 الساعة 02 UTC
ريح 15 عقدةمن اتجاهات متغيرة
الرؤية: 4500 متر
غيوم قليلة على ارتفاع 1800 قدم, مزنة ركامية.
غيوم مفككة على ارتفاع 2500 قدم
عاصفة رعدية, مطر

TAF: VTUO 182300Z 1900/1924 23005KT 9000 SCT030 TEMPO 1900/1902 VRB15KT 4500 TSRA FEW018CB BKN025

أرصاد الطقس والتوقعات من أكثر من 4000 مطار (تقارير الطقس للمطار METAR والتنبؤ بالطقس بالمطارTAF).

المحطات المتاحة هي النقط الصفراء والحمراء على الخريطة.

حرك المؤشر فوق النقطة لمعرفة اسم المحطة.

ثم انقر لمعرفة أرصاد وتوقعات الطقس.

لتغيير الخارطة: اضغط على الأزرار الخضراء مع رمز الصليب الأسود للتكبير. على الزر الأخضر مع شرطة للتصغير، أو على الأسهم الخضراء للخرائط المجاورة.


METAR-TAF: